Latest Weather Observations for Lucas Heights

IDN60801

Issued at 6:03 pm EST Thursday 25 August 2016 (issued every 30 minutes, with the page automatically refreshed every 10 minutes)

About weather observations | Map of weather stations | Latest weather observations for NSW | Other Formats
Station Details ID: 066023 Name: LUCAS HEIGHTS AWS Lat: -34.05 Lon: 150.98 Height: 140.0 m
Data from the previous 72 hours. | See also: Recent months for locations in New South Wales
Date/Time
EST
Temp
°C
App
Temp
°C
Dew
Point
°C
Rel
Hum
%
Delta-T
°C
Wind Press
QNH
hPa
Press
MSL
hPa
Rain since
9am
mm
Dir  Spd
km/h
Gust
km/h
Spd
kts
Gust
kts
25/05:45pm 12.1 9.9 6.0 66 2.9 SSW 7 13 4 7 1012.0 - 0.0
25/05:30pm 13.0 11.0 6.1 63 3.3 SSW 6 7 3 4 1011.8 - 0.0
25/05:15pm 13.5 11.5 6.2 61 3.5 S 6 7 3 4 1011.6 - 0.0
25/05:00pm 13.4 11.2 6.2 61 3.5 SSW 7 11 4 6 1011.4 - 0.0
25/04:45pm 14.0 11.7 5.9 58 3.9 S 7 13 4 7 1011.2 - 0.0
25/04:30pm 14.4 11.9 4.8 52 4.5 SSW 7 17 4 9 1011.0 - 0.0
25/04:15pm 15.6 11.2 2.8 42 5.8 WSW 15 24 8 13 1010.6 - 0.0
25/04:00pm 16.2 11.9 3.5 42 5.9 SW 15 22 8 12 1010.5 - 0.0
25/03:45pm 15.6 11.4 4.0 46 5.4 WSW 15 22 8 12 1010.5 - 0.0
25/03:30pm 14.9 10.6 3.3 45 5.3 WSW 15 22 8 12 1010.4 - 0.0
25/03:15pm 16.5 12.7 3.9 43 5.9 SW 13 24 7 13 1010.3 - 0.0
25/03:00pm 16.0 11.9 4.1 45 5.6 SW 15 24 8 13 1010.2 - 0.0
25/02:45pm 15.3 11.1 3.8 46 5.3 WSW 15 24 8 13 1010.1 - 0.0
25/02:30pm 15.0 10.5 4.3 48 5.0 SW 17 24 9 13 1010.1 - 0.0
25/02:15pm 14.7 10.2 4.0 48 4.9 WSW 17 24 9 13 1010.0 - 0.0
25/02:00pm 15.5 11.5 4.7 48 5.1 SW 15 24 8 13 1009.9 - 0.0
25/01:45pm 14.4 10.3 4.6 51 4.6 SW 15 22 8 12 1009.8 - 0.0
25/01:30pm 14.1 9.6 4.2 51 4.6 SW 17 24 9 13 1009.8 - 0.0
25/01:15pm 15.5 11.2 5.3 50 4.9 SW 17 28 9 15 1009.7 - 0.0
25/01:00pm 15.1 11.6 5.6 53 4.6 WSW 13 22 7 12 1009.9 - 0.0
25/12:45pm 14.6 10.7 5.2 53 4.5 WSW 15 24 8 13 1010.1 - 0.0
25/12:30pm 14.6 9.9 5.3 53 4.4 WSW 19 28 10 15 1010.2 - 0.0
25/12:15pm 13.8 9.0 4.9 55 4.2 WSW 19 28 10 15 1010.4 - 0.0
25/12:00pm 13.3 8.5 4.5 55 4.1 WSW 19 32 10 17 1010.5 - 0.0
25/11:45am 13.3 8.5 4.5 55 4.1 WSW 19 30 10 16 1010.5 - 0.0
25/11:30am 13.0 7.6 4.6 56 3.9 SW 22 37 12 20 1010.4 - 0.0
25/11:15am 12.6 7.3 4.9 59 3.6 WSW 22 35 12 19 1010.5 - 0.0
25/11:00am 12.3 7.5 5.4 63 3.2 WSW 20 32 11 17 1010.4 - 0.0
25/10:45am 11.9 6.2 5.1 63 3.1 WSW 24 32 13 17 1010.4 - 0.0
25/10:30am 11.9 5.5 5.3 64 3.1 WSW 28 41 15 22 1010.5 - 0.0
25/10:15am 11.8 6.3 5.8 66 2.8 WSW 24 35 13 19 1010.4 - 0.0
25/10:00am 11.5 5.6 6.0 69 2.6 SW 26 39 14 21 1010.4 - 0.0
25/09:45am 10.6 6.1 6.9 78 1.8 WSW 20 37 11 20 1010.3 - 0.0
25/09:30am 9.8 5.5 6.9 82 1.4 WSW 19 30 10 16 1010.2 - 0.0
25/09:15am 9.1 4.1 6.5 84 1.2 WSW 22 32 12 17 1010.2 - 0.0
25/09:00am 8.6 3.6 6.3 85 1.1 WSW 22 33 12 18 1010.1 - 41.8
25/08:45am 8.3 3.6 6.0 85 1.1 WSW 20 30 11 16 1010.1 - 41.8
25/08:30am 8.4 4.2 5.9 84 1.1 WSW 17 24 9 13 1010.1 - 41.6
25/08:15am 8.5 4.7 5.7 82 1.3 WSW 15 24 8 13 1010.1 - 41.6
25/08:00am 8.7 3.9 5.8 82 1.3 WSW 20 33 11 18 1009.9 - 41.6
25/07:45am 8.3 3.2 5.8 84 1.1 WSW 22 32 12 17 1009.6 - 41.6
25/07:30am 7.8 2.6 5.6 86 1.0 WSW 22 28 12 15 1009.5 - 41.6
25/07:15am 7.6 2.8 5.4 86 1.0 WSW 20 28 11 15 1009.2 - 41.6
25/07:00am 7.5 2.6 5.3 86 1.0 WSW 20 24 11 13 1009.1 - 41.6
25/06:45am 7.5 2.6 5.3 86 1.0 W 20 24 11 13 1008.9 - 41.6
25/06:30am 7.5 2.3 5.3 86 1.0 W 22 28 12 15 1008.7 - 41.6
25/06:15am 7.5 2.3 5.3 86 1.0 W 22 24 12 13 1008.5 - 41.6
25/06:00am 7.5 2.3 5.4 86 0.9 W 22 26 12 14 1008.2 - 41.6
25/05:45am 7.4 2.7 5.2 86 1.0 W 19 22 10 12 1008.1 - 41.6
25/05:30am 7.5 2.8 5.2 85 1.0 WSW 19 22 10 12 1008.0 - 41.6
25/05:15am 7.5 2.8 5.3 86 1.0 WSW 19 24 10 13 1007.8 - 41.6
25/05:00am 7.5 2.8 5.3 86 1.0 WSW 19 24 10 13 1007.6 - 41.6
25/04:45am 7.6 3.0 5.4 86 1.0 WSW 19 24 10 13 1007.6 - 41.6
25/04:30am 7.7 2.9 5.6 86 0.9 WSW 20 30 11 16 1007.5 - 41.6
25/04:15am 7.7 2.9 5.7 87 0.9 WSW 20 28 11 15 1007.4 - 41.6
25/04:00am 7.7 2.9 5.8 88 0.9 WSW 20 30 11 16 1007.3 - 41.6
25/03:45am 7.9 2.8 6.1 88 0.8 WSW 22 30 12 16 1007.2 - 41.6
25/03:30am 7.9 2.5 6.3 90 0.7 SW 24 33 13 18 1007.2 - 41.6
25/03:15am 7.9 2.9 6.4 90 0.7 SW 22 32 12 17 1007.2 - 41.6
25/03:00am 7.9 3.3 6.4 90 0.7 SW 20 32 11 17 1007.2 - 41.6
25/02:45am 8.0 3.0 6.4 90 0.7 SW 22 28 12 15 1007.2 - 41.6
25/02:30am 8.1 3.1 6.5 90 0.7 WSW 22 30 12 16 1007.4 - 41.4
25/02:15am 8.2 3.2 6.6 90 0.7 WSW 22 28 12 15 1007.4 - 41.4
25/02:00am 8.1 3.5 6.6 90 0.7 SW 20 28 11 15 1007.2 - 41.4
25/01:45am 8.0 4.0 6.5 90 0.7 SW 17 22 9 12 1007.2 - 41.4
25/01:30am 8.2 4.2 6.6 90 0.7 WSW 17 22 9 12 1007.3 - 41.4
25/01:15am 8.4 4.1 6.9 90 0.7 SW 19 24 10 13 1007.4 - 41.4
25/01:00am 8.4 4.1 7.0 91 0.7 SW 19 24 10 13 1007.4 - 41.4
25/12:45am 8.4 4.1 7.0 91 0.7 SSW 19 28 10 15 1007.3 - 41.4
25/12:30am 8.5 3.6 7.1 91 0.7 SSW 22 32 12 17 1007.2 - 41.4
25/12:15am 8.5 3.6 7.0 90 0.7 SSW 22 33 12 18 1007.3 - 41.2
25/12:00am 8.5 4.2 7.2 91 0.6 SSW 19 30 10 16 1007.3 - 41.2
 
Date/Time
EST
Temp
°C
App
Temp
°C
Dew
Point
°C
Rel
Hum
%
Delta-T
°C
Wind Press
QNH
hPa
Press
MSL
hPa
Rain since
9am
mm
Dir  Spd
km/h
Gust
km/h
Spd
kts
Gust
kts
24/11:45pm 8.5 4.6 7.1 91 0.7 S 17 30 9 16 1007.3 - 41.0
24/11:30pm 8.3 3.4 6.9 91 0.7 SSW 22 33 12 18 1007.5 - 41.0
24/11:15pm 8.2 3.9 6.9 91 0.6 WSW 19 26 10 14 1007.7 - 40.9
24/11:00pm 8.2 4.6 6.8 91 0.7 SW 15 22 8 12 1007.6 - 40.9
24/10:45pm 8.2 4.2 6.8 91 0.7 SW 17 24 9 13 1007.6 - 40.3
24/10:30pm 8.3 4.4 6.9 91 0.7 WSW 17 26 9 14 1007.7 - 39.4
24/10:15pm 8.5 4.1 7.2 91 0.6 WSW 20 26 11 14 1007.8 - 38.5
24/10:00pm 8.9 5.1 7.5 91 0.7 WSW 17 24 9 13 1007.9 - 37.6
24/09:45pm 9.3 6.0 7.9 91 0.7 WSW 15 22 8 12 1007.8 - 36.4
24/09:30pm 9.5 5.3 8.1 91 0.7 SW 20 28 11 15 1007.7 - 35.3
24/09:15pm 9.4 5.3 8.0 91 0.7 SW 19 24 10 13 1007.7 - 35.1
24/09:00pm 9.4 5.7 8.0 91 0.7 SW 17 28 9 15 1007.7 - 35.1
24/08:45pm 9.4 5.1 8.0 91 0.7 SSW 20 33 11 18 1007.5 - 35.1
24/08:30pm 9.4 5.1 8.0 91 0.7 SSW 20 32 11 17 1007.3 - 34.9
24/08:15pm 9.5 4.9 8.2 92 0.6 SSW 22 33 12 18 1007.2 - 33.7
24/08:00pm 9.6 5.0 8.3 92 0.6 SSW 22 39 12 21 1007.5 - 32.6
24/07:45pm 9.8 5.6 8.4 91 0.7 SW 20 33 11 18 1007.6 - 30.8
24/07:30pm 10.3 5.5 8.9 91 0.7 SSW 24 37 13 20 1007.4 - 28.6
24/07:15pm 10.5 5.4 9.2 92 0.7 S 26 37 14 20 1007.2 - 27.0
24/07:00pm 10.3 5.1 8.9 91 0.7 S 26 39 14 21 1007.0 - 26.3
24/06:45pm 10.1 6.0 8.7 91 0.7 S 20 39 11 21 1007.2 - 25.9
24/06:30pm 10.0 5.9 8.6 91 0.7 S 20 33 11 18 1007.4 - 24.7
24/06:15pm 10.2 5.8 8.8 91 0.7 SSW 22 30 12 16 1007.6 - 21.2
24/06:00pm 10.3 5.9 9.0 92 0.6 SSW 22 50 12 27 1007.1 - 19.3
24/05:45pm 10.2 4.6 8.8 91 0.7 SSE 28 46 15 25 1005.8 - 18.7
24/05:30pm 10.2 5.8 8.8 91 0.7 SSE 22 35 12 19 1006.2 - 17.8
24/05:15pm 10.6 5.5 9.2 91 0.7 SSE 26 41 14 22 1006.6 - 16.4
24/05:00pm 10.9 6.3 9.5 91 0.7 SSE 24 37 13 20 1006.5 - 15.5
24/04:45pm 11.1 7.3 9.8 92 0.7 SSE 20 41 11 22 1006.3 - 15.1
24/04:30pm 11.1 6.9 9.8 92 0.7 SSE 22 35 12 19 1006.7 - 14.6
24/04:15pm 11.1 7.3 9.8 92 0.7 SSE 20 30 11 16 1006.9 - 14.0
24/04:00pm 11.0 6.8 9.6 91 0.7 SSE 22 32 12 17 1007.1 - 13.7
24/03:45pm 10.9 7.0 9.5 91 0.7 SSE 20 28 11 15 1007.3 - 13.3
24/03:30pm 10.9 6.6 9.5 91 0.7 S 22 30 12 16 1007.7 - 12.4
24/03:15pm 11.2 7.4 9.8 91 0.7 S 20 33 11 18 1007.8 - 11.7
24/03:00pm 11.7 8.6 10.3 91 0.7 SSE 17 26 9 14 1008.2 - 10.4
24/02:45pm 11.9 9.2 10.5 91 0.7 SE 15 26 8 14 1008.3 - 9.4
24/02:30pm 12.0 9.7 10.6 91 0.7 SSE 13 22 7 12 1008.3 - 8.6
24/02:15pm 11.9 9.6 10.6 92 0.7 SSE 13 20 7 11 1008.6 - 8.5
24/02:00pm 11.7 9.0 10.4 92 0.7 SSE 15 22 8 12 1008.7 - 8.5
24/01:45pm 11.3 9.2 9.9 91 0.7 SSE 11 19 6 10 1008.5 - 8.3
24/01:30pm 11.0 8.5 9.6 91 0.7 S 13 17 7 9 1008.8 - 7.7
24/01:15pm 10.8 8.2 9.5 92 0.7 S 13 19 7 10 1009.3 - 7.4
24/01:00pm 10.8 7.5 9.4 91 0.7 S 17 28 9 15 1009.4 - 6.1
24/12:45pm 10.9 7.2 9.4 90 0.8 S 19 30 10 16 1009.6 - 5.6
24/12:30pm 11.0 7.3 9.6 91 0.7 SSE 19 28 10 15 1009.9 - 4.5
24/12:15pm 11.2 8.0 9.8 91 0.7 SSE 17 28 9 15 1010.4 - 3.4
24/12:00pm 11.4 7.8 9.9 90 0.8 SSE 19 28 10 15 1010.6 - 2.2
24/11:45am 11.4 7.8 9.8 90 0.8 SSE 19 28 10 15 1010.8 - 1.6
24/11:30am 11.4 8.2 9.8 90 0.8 SSE 17 24 9 13 1011.3 - 1.3
24/11:15am 11.6 7.9 10.1 90 0.8 S 20 30 11 16 1011.6 - 0.9
24/11:00am 11.6 8.1 10.1 90 0.8 S 19 32 10 17 1012.3 - 0.7
24/10:45am 11.3 8.5 9.9 91 0.7 S 15 22 8 12 1013.0 - 0.5
24/10:30am 11.3 9.2 9.9 91 0.7 S 11 19 6 10 1013.3 - 0.4
24/10:15am 11.2 8.0 9.8 91 0.7 S 17 30 9 16 1013.1 - 0.2
24/10:00am 11.0 7.7 9.6 91 0.7 S 17 24 9 13 1013.3 - 0.0
24/09:45am 10.7 8.1 9.2 90 0.8 S 13 20 7 11 1013.3 - 0.0
24/09:30am 10.7 8.1 9.2 90 0.8 S 13 19 7 10 1013.4 - 0.0
24/09:15am 10.7 8.1 9.2 90 0.8 S 13 20 7 11 1013.7 - 0.0
24/09:00am 10.6 7.2 9.1 90 0.8 S 17 22 9 12 1013.5 - 1.6
24/08:45am 10.6 7.6 9.1 90 0.8 S 15 20 8 11 1013.8 - 1.6
24/08:30am 10.7 8.0 9.1 90 0.8 S 13 17 7 9 1014.1 - 1.6
24/08:15am 10.7 8.4 9.0 89 0.8 SSE 11 20 6 11 1013.9 - 1.4
24/08:00am 10.8 8.9 9.0 89 0.9 SE 9 17 5 9 1013.8 - 0.7
24/07:45am 10.9 9.0 9.1 89 0.9 SSE 9 13 5 7 1013.5 - 0.2
24/07:30am 10.9 9.0 9.0 88 0.9 S 9 13 5 7 1013.6 - 0.2
24/07:15am 11.0 9.1 9.0 87 1.0 SSE 9 15 5 8 1013.5 - 0.2
24/07:00am 11.0 8.7 9.1 88 1.0 SSE 11 13 6 7 1013.7 - 0.2
24/06:45am 11.0 8.7 9.1 88 1.0 S 11 19 6 10 1013.6 - 0.2
24/06:30am 11.0 8.3 9.1 88 1.0 S 13 20 7 11 1013.5 - 0.2
24/06:15am 11.0 8.4 9.2 89 0.9 S 13 19 7 10 1013.4 - 0.2
24/06:00am 11.0 8.0 9.1 88 1.0 S 15 22 8 12 1013.4 - 0.2
24/05:45am 10.9 7.8 9.0 88 0.9 SSE 15 26 8 14 1013.2 - 0.2
24/05:30am 11.0 7.6 9.0 87 1.0 S 17 26 9 14 1013.5 - 0.2
24/05:15am 10.9 7.1 9.0 88 0.9 S 19 28 10 15 1013.8 - 0.2
24/05:00am 10.8 7.3 8.8 87 1.0 S 17 26 9 14 1013.7 - 0.2
24/04:45am 10.9 7.8 8.9 87 1.0 S 15 26 8 14 1013.8 - 0.2
24/04:30am 10.8 7.3 8.8 87 1.0 S 17 24 9 13 1013.7 - 0.2
24/04:15am 10.7 7.6 8.8 88 0.9 S 15 20 8 11 1013.7 - 0.2
24/04:00am 10.7 7.2 8.7 87 1.0 S 17 22 9 12 1014.2 - 0.2
24/03:45am 10.7 8.3 8.7 87 1.0 S 11 17 6 9 1014.4 - 0.2
24/03:30am 10.7 7.9 8.6 87 1.0 S 13 22 7 12 1014.5 - 0.2
24/03:15am 10.7 8.3 8.7 87 1.0 S 11 17 6 9 1014.5 - 0.2
24/03:00am 10.7 8.7 8.7 87 1.0 SSW 9 13 5 7 1014.8 - 0.2
24/02:45am 10.7 8.3 8.7 87 1.0 S 11 17 6 9 1015.1 - 0.2
24/02:30am 10.8 8.0 8.7 87 1.0 S 13 22 7 12 1014.9 - 0.2
24/02:15am 10.7 7.5 8.6 87 1.0 S 15 22 8 12 1014.7 - 0.2
24/02:00am 10.8 7.3 8.7 87 1.0 S 17 26 9 14 1014.5 - 0.2
24/01:45am 10.9 7.8 9.0 88 0.9 S 15 22 8 12 1014.9 - 0.2
24/01:30am 11.0 9.1 9.1 88 1.0 S 9 15 5 8 1015.5 - 0.2
24/01:15am 11.2 9.4 9.3 88 1.0 S 9 15 5 8 1015.4 - 0.2
24/01:00am 11.2 9.0 9.4 89 0.9 S 11 17 6 9 1015.4 - 0.2
24/12:45am 11.1 8.5 9.3 89 0.9 S 13 19 7 10 1015.3 - 0.2
24/12:30am 11.1 8.1 9.3 89 0.9 S 15 20 8 11 1015.5 - 0.2
24/12:15am 10.9 8.2 8.9 87 1.0 S 13 19 7 10 1015.8 - 0.2
24/12:00am 11.1 8.1 9.1 87 1.0 S 15 22 8 12 1015.9 - 0.2
 
Date/Time
EST
Temp
°C
App
Temp
°C
Dew
Point
°C
Rel
Hum
%
Delta-T
°C
Wind Press
QNH
hPa
Press
MSL
hPa
Rain since
9am
mm
Dir  Spd
km/h
Gust
km/h
Spd
kts
Gust
kts
23/11:45pm 11.1 8.0 9.0 87 1.1 S 15 19 8 10 1015.8 - 0.2
23/11:30pm 11.4 8.3 9.0 85 1.2 S 15 24 8 13 1016.1 - 0.2
23/11:15pm 11.5 8.4 9.0 85 1.3 S 15 24 8 13 1016.1 - 0.2
23/11:00pm 11.5 9.2 8.9 84 1.3 S 11 17 6 9 1016.3 - 0.2
23/10:45pm 11.5 8.8 8.8 83 1.4 S 13 17 7 9 1016.3 - 0.2
23/10:30pm 11.6 9.2 8.7 82 1.4 S 11 17 6 9 1016.5 - 0.2
23/10:15pm 11.6 8.5 8.7 82 1.4 S 15 24 8 13 1016.1 - 0.2
23/10:00pm 11.6 8.4 8.6 82 1.5 S 15 22 8 12 1016.0 - 0.2
23/09:45pm 11.6 7.6 8.4 81 1.6 S 19 24 10 13 1015.5 - 0.2
23/09:30pm 11.5 7.5 8.2 80 1.6 S 19 26 10 14 1015.6 - 0.2
23/09:15pm 11.4 8.0 7.8 78 1.8 S 15 19 8 10 1016.0 - 0.2
23/09:00pm 11.4 8.7 7.4 76 1.9 SSE 11 17 6 9 1016.1 - 0.2
23/08:45pm 11.4 8.7 7.2 75 2.0 SSE 11 15 6 8 1016.3 - 0.2
23/08:30pm 11.6 9.2 7.1 74 2.2 SSE 9 13 5 7 1016.6 - 0.2
23/08:15pm 11.5 9.1 7.1 74 2.1 S 9 13 5 7 1016.5 - 0.2
23/08:00pm 11.5 9.1 7.0 74 2.2 S 9 13 5 7 1016.6 - 0.2
23/07:45pm 11.6 9.2 6.9 73 2.3 S 9 11 5 6 1016.5 - 0.2
23/07:30pm 11.6 9.2 6.9 73 2.3 S 9 11 5 6 1016.4 - 0.2
23/07:15pm 11.7 8.9 6.9 72 2.3 SSW 11 13 6 7 1016.3 - 0.2
23/07:00pm 11.7 9.3 6.9 72 2.3 SSW 9 13 5 7 1016.3 - 0.2
23/06:45pm 11.7 9.7 7.0 73 2.3 SSW 7 13 4 7 1016.1 - 0.2
23/06:30pm 11.9 9.5 7.0 72 2.4 S 9 17 5 9 1016.0 - 0.2
23/06:15pm 12.1 9.0 7.1 71 2.4 SSW 13 22 7 12 1015.9 - 0.2
23/06:00pm 12.4 9.3 7.1 70 2.6 S 13 22 7 12 1015.7 - 0.2
23/05:45pm 12.5 9.4 7.1 69 2.6 S 13 26 7 14 1015.6 - 0.2
23/05:30pm 12.6 9.5 7.4 70 2.5 S 13 22 7 12 1015.3 - 0.2
23/05:15pm 12.8 10.1 7.5 70 2.6 S 11 15 6 8 1015.2 - 0.2
23/05:00pm 13.0 10.3 7.3 68 2.8 S 11 17 6 9 1014.9 - 0.2
23/04:45pm 13.1 10.0 7.2 67 2.9 S 13 20 7 11 1014.2 - 0.2
23/04:30pm 13.3 9.8 7.0 65 3.1 S 15 24 8 13 1014.4 - 0.2
23/04:15pm 13.4 10.3 7.1 65 3.1 S 13 22 7 12 1014.5 - 0.2
23/04:00pm 13.5 9.2 6.9 64 3.2 S 19 24 10 13 1014.3 - 0.2
23/03:45pm 13.8 9.3 7.0 63 3.3 S 20 30 11 16 1014.1 - 0.2
23/03:30pm 14.1 11.4 7.3 63 3.4 S 11 22 6 12 1013.6 - 0.2
23/03:15pm 13.8 10.3 7.1 64 3.3 S 15 24 8 13 1013.3 - 0.2
23/03:00pm 13.5 9.9 6.7 63 3.3 S 15 26 8 14 1013.3 - 0.2
23/02:45pm 13.8 9.5 6.8 62 3.4 S 19 28 10 15 1013.4 - 0.2
23/02:30pm 14.1 9.8 7.1 62 3.4 S 19 32 10 17 1013.3 - 0.2
23/02:15pm 14.1 10.6 7.0 62 3.5 S 15 24 8 13 1013.6 - 0.2
23/02:00pm 14.6 10.2 7.2 61 3.7 SSW 20 30 11 16 1013.7 - 0.2
23/01:45pm 14.7 10.3 7.3 61 3.7 S 20 32 11 17 1013.7 - 0.2
23/01:30pm 14.8 10.6 7.3 61 3.7 S 19 28 10 15 1013.9 - 0.2
23/01:15pm 14.9 10.4 6.9 58 3.9 S 20 28 11 15 1013.9 - 0.2
23/01:00pm 15.6 11.3 6.9 56 4.3 S 19 28 10 15 1013.7 - 0.2
23/12:45pm 16.0 12.9 7.2 56 4.4 S 13 22 7 12 1013.6 - 0.2
23/12:30pm 16.1 12.6 7.4 56 4.4 SSW 15 28 8 15 1013.7 - 0.2
23/12:15pm 15.6 12.1 7.2 57 4.2 SSW 15 24 8 13 1014.0 - 0.2
23/12:00pm 15.2 10.7 7.0 58 4.1 S 20 33 11 18 1014.1 - 0.2
23/11:45am 15.1 11.3 7.6 61 3.7 SSW 17 24 9 13 1014.3 - 0.2
23/11:30am 15.1 11.8 8.1 63 3.5 SSW 15 20 8 11 1014.4 - 0.2
23/11:15am 14.4 10.2 7.4 63 3.5 SW 19 28 10 15 1014.6 - 0.2
23/11:00am 14.5 11.2 8.0 65 3.3 WSW 15 22 8 12 1014.9 - 0.2
23/10:45am 14.1 10.8 8.0 66 3.1 WSW 15 22 8 12 1015.1 - 0.2
23/10:30am 13.5 9.8 7.9 69 2.8 WSW 17 22 9 12 1015.0 - 0.2
23/10:15am 13.1 9.3 7.5 69 2.8 WSW 17 22 9 12 1014.9 - 0.2
23/10:00am 12.6 8.8 7.7 72 2.4 W 17 24 9 13 1014.8 - 0.2
23/09:45am 12.3 9.3 7.6 73 2.3 W 13 19 7 10 1014.7 - 0.2
23/09:30am 12.2 9.2 7.5 73 2.3 W 13 19 7 10 1014.6 - 0.2
23/09:15am 12.3 9.3 7.5 72 2.3 W 13 17 7 9 1014.1 - 0.2
23/09:00am 11.8 9.1 7.4 74 2.1 WSW 11 20 6 11 1013.2 - 5.2
23/08:45am 11.0 7.9 7.1 77 1.9 SW 13 20 7 11 1012.9 - 5.2
23/08:30am 10.5 7.7 7.0 79 1.7 WSW 11 19 6 10 1013.2 - 5.2
23/08:15am 9.8 6.9 6.5 80 1.5 WSW 11 19 6 10 1013.3 - 5.2
23/08:00am 9.3 6.0 6.2 81 1.4 WSW 13 19 7 10 1013.3 - 5.2
23/07:45am 8.7 4.9 6.0 83 1.2 WSW 15 24 8 13 1013.1 - 5.2
23/07:30am 7.9 3.3 5.7 86 1.0 WSW 19 26 10 14 1012.8 - 5.2
23/07:15am 7.0 3.0 4.9 86 0.9 WSW 15 22 8 12 1012.8 - 5.2
23/07:00am 6.8 2.4 4.7 86 0.9 WSW 17 20 9 11 1012.6 - 5.2
23/06:45am 6.7 1.9 4.5 86 1.0 WSW 19 22 10 12 1012.5 - 5.2
23/06:30am 6.9 2.8 4.6 85 1.0 WSW 15 22 8 12 1012.4 - 5.2
23/06:15am 7.2 2.3 4.9 85 1.0 WSW 20 24 11 13 1012.3 - 5.2
23/06:00am 7.1 1.8 4.9 86 1.0 WSW 22 28 12 15 1012.1 - 5.2
23/05:45am 7.0 1.3 4.9 86 0.9 WSW 24 28 13 15 1011.9 - 5.2
23/05:30am 6.6 0.5 4.6 87 0.9 WSW 26 30 14 16 1011.9 - 5.2
23/05:15am 6.6 0.5 4.7 88 0.8 WSW 26 28 14 15 1011.8 - 5.2
23/05:00am 6.8 1.5 4.9 88 0.8 W 22 28 12 15 1011.8 - 5.2
23/04:45am 6.9 2.2 5.0 88 0.8 WSW 19 22 10 12 1011.6 - 5.2
23/04:30am 6.5 1.5 4.7 88 0.8 WSW 20 24 11 13 1011.4 - 5.2
23/04:15am 6.6 0.5 4.8 88 0.8 WSW 26 28 14 15 1011.4 - 5.2
23/04:00am 6.7 1.8 5.1 89 0.7 WSW 20 24 11 13 1011.4 - 5.2
23/03:45am 6.8 2.1 5.1 89 0.8 WSW 19 22 10 12 1011.3 - 5.2
23/03:30am 7.1 1.9 5.5 89 0.7 W 22 24 12 13 1011.3 - 5.2
23/03:15am 7.1 2.3 5.5 89 0.7 W 20 24 11 13 1011.2 - 5.2
23/03:00am 6.8 1.9 5.2 89 0.7 W 20 22 11 12 1011.2 - 5.2
23/02:45am 6.8 2.1 5.2 89 0.7 W 19 22 10 12 1011.2 - 5.2
23/02:30am 6.9 2.2 5.2 89 0.8 W 19 22 10 12 1011.3 - 5.2
23/02:15am 7.2 2.6 5.5 89 0.8 W 19 20 10 11 1011.5 - 5.2
23/02:00am 7.4 2.8 5.4 87 0.9 W 19 24 10 13 1011.7 - 5.2
23/01:45am 7.7 3.1 5.4 85 1.0 W 19 24 10 13 1012.0 - 5.2
23/01:30am 8.1 3.9 5.7 85 1.1 W 17 19 9 10 1011.9 - 5.2
23/01:15am 8.1 3.9 5.8 85 1.0 W 17 19 9 10 1011.9 - 5.2
23/01:00am 8.2 4.5 6.3 88 0.9 W 15 19 8 10 1012.0 - 5.2
23/12:45am 7.2 3.6 5.2 87 0.9 WSW 13 17 7 9 1011.6 - 5.2
23/12:30am 7.6 3.0 5.6 87 0.9 WSW 19 20 10 11 1011.9 - 5.2
23/12:15am 7.8 3.6 5.8 87 0.9 WSW 17 19 9 10 1012.4 - 5.2
23/12:00am 7.7 3.2 5.9 88 0.8 WSW 19 19 10 10 1012.4 - 5.2
 
Date/Time
EST
Temp
°C
App
Temp
°C
Dew
Point
°C
Rel
Hum
%
Delta-T
°C
Wind Press
QNH
hPa
Press
MSL
hPa
Rain since
9am
mm
Dir  Spd
km/h
Gust
km/h
Spd
kts
Gust
kts
22/11:45pm 7.8 3.7 6.0 88 0.8 WSW 17 19 9 10 1012.4 - 5.2
22/11:30pm 7.8 3.7 6.1 89 0.8 WSW 17 19 9 10 1012.6 - 5.2
22/11:15pm 7.8 3.7 6.1 89 0.8 WSW 17 19 9 10 1012.7 - 5.2
22/11:00pm 8.0 3.9 6.3 89 0.8 WSW 17 19 9 10 1012.7 - 5.2
22/10:45pm 8.2 4.2 6.5 89 0.8 WSW 17 19 9 10 1012.9 - 5.2
22/10:30pm 8.2 3.8 6.5 89 0.8 W 19 22 10 12 1013.2 - 5.2
22/10:15pm 8.2 4.2 6.5 89 0.8 W 17 22 9 12 1013.3 - 5.2
22/10:00pm 8.1 4.0 6.4 89 0.8 W 17 22 9 12 1013.3 - 5.2
22/09:45pm 8.2 4.5 6.3 88 0.9 W 15 19 8 10 1013.4 - 5.2
22/09:30pm 8.3 4.6 6.3 87 0.9 W 15 20 8 11 1013.6 - 5.2
22/09:15pm 8.6 4.6 6.5 87 1.0 W 17 24 9 13 1014.0 - 4.1
22/09:00pm 8.7 4.7 6.5 86 1.0 W 17 22 9 12 1013.8 - 3.6
22/08:45pm 8.4 3.9 6.3 87 1.0 W 19 20 10 11 1013.5 - 3.6
22/08:30pm 8.4 4.7 6.4 87 0.9 W 15 17 8 9 1013.6 - 3.6
22/08:15pm 8.2 4.5 6.3 88 0.9 W 15 17 8 9 1013.4 - 3.6
22/08:00pm 8.2 4.1 6.3 88 0.9 W 17 19 9 10 1013.7 - 3.6
22/07:45pm 8.3 4.6 6.3 87 0.9 W 15 19 8 10 1013.7 - 3.6
22/07:30pm 8.4 4.7 6.4 87 0.9 W 15 19 8 10 1013.8 - 3.6
22/07:15pm 8.5 4.8 6.5 87 0.9 W 15 20 8 11 1013.9 - 3.6
22/07:00pm 8.6 5.3 6.6 87 0.9 W 13 20 7 11 1014.0 - 3.6
22/06:45pm 8.7 5.8 6.6 87 1.0 W 11 19 6 10 1014.1 - 3.4
22/06:30pm 8.8 4.8 6.7 87 1.0 W 17 20 9 11 1014.1 - 3.2
22/06:15pm 8.9 5.0 6.9 87 0.9 W 17 19 9 10 1014.0 - 2.9

Other Formats:

Comma delimited format used in spreadsheet applications
http://www.bom.gov.au/fwo/IDN60801/IDN60801.95757.axf

JavaScript Object Notation format (JSON) in row-major order
http://www.bom.gov.au/fwo/IDN60801/IDN60801.95757.json